Accueil
METAR-TAF:

METAR-TAF

Aéroports :

Aéroport de Lyon-Bron

Lyon, France

latitude: 45-43N, longitude: 004-57E, altitude: 200 m

Observation

Le bulletin a été fait il y a 27 minutes, à 04:30 UTC
Vent calme
Température 0°C
Humidité 86%
Pression 1029 hPa
Visibilité: 7000 m

METAR: LFLY 160430Z AUTO 00000KT 7000 NSC M00/M02 Q1029 NOSIG

Heure: 05:57 (04:57 UTC)

Prévision

Le bulletin a été fait il y a 5 heures et 57 minutes, à 23:00 UTC
Prévision valable du 16 à 00 UTC au 16 à 24 UTC
Vent 3 kt de direction variable
Visibilité 10 km ou plus
pas de nuages en-dessous de 1500 mètres et pas de cumulonimbus.
Temporairement
du 16 à 11 UTC au 16 à 18 UTC
Vent 8 kt de sud

TAF: LFLY 152300Z 1600/1624 VRB03KT CAVOK TEMPO 1611/1618 18008KT

Observations et prévisions météorologiques de plus de 4000 aéroports (messages METAR et TAF).

Les stations disponibles sont représentées par des disques jaunes et rouges sur la carte.

Passer la souris dessus pour voir le nom de la station.

Cliquer dessus pour voir les observations et prévisions météorologiques.

Pour changer de carte: cliquez sur les boutons verts avec une croix noire pour zoomer, sur le bouton vert avec un tiret pour effectuer un zoom arrière, ou sur les flèches vertes pour les cartes adjacentes.


METAR-TAF: